sensor_id;sensor_type;location;lat;lon;timestamp;temperature;humidity
15450;DHT22;7826;49.784;9.934;2023-02-01T00:00:15;5.10;1.00
15450;DHT22;7826;49.784;9.934;2023-02-01T00:02:42;5.10;50.20
15450;DHT22;7826;49.784;9.934;2023-02-01T00:05:09;5.10;1.00
15450;DHT22;7826;49.784;9.934;2023-02-01T00:07:37;5.10;1.00
15450;DHT22;7826;49.784;9.934;2023-02-01T00:10:07;5.00;99.90
15450;DHT22;7826;49.784;9.934;2023-02-01T00:12:34;5.00;1.00
15450;DHT22;7826;49.784;9.934;2023-02-01T00:15:01;5.00;99.90
15450;DHT22;7826;49.784;9.934;2023-02-01T00:17:27;5.00;99.90
15450;DHT22;7826;49.784;9.934;2023-02-01T00:19:53;5.00;1.00
15450;DHT22;7826;49.784;9.934;2023-02-01T00:22:20;5.00;99.90
15450;DHT22;7826;49.784;9.934;2023-02-01T00:24:46;5.00;99.90
15450;DHT22;7826;49.784;9.934;2023-02-01T00:27:12;5.00;6.10
15450;DHT22;7826;49.784;9.934;2023-02-01T00:29:44;5.00;1.00
15450;DHT22;7826;49.784;9.934;2023-02-01T00:32:11;5.00;61.90
15450;DHT22;7826;49.784;9.934;2023-02-01T00:34:37;5.00;14.20
15450;DHT22;7826;49.784;9.934;2023-02-01T00:37:03;4.90;5.70
15450;DHT22;7826;49.784;9.934;2023-02-01T00:39:29;5.00;99.90
15450;DHT22;7826;49.784;9.934;2023-02-01T00:41:56;5.00;99.90
15450;DHT22;7826;49.784;9.934;2023-02-01T00:44:22;5.00;1.00
15450;DHT22;7826;49.784;9.934;2023-02-01T00:46:48;4.90;1.00
15450;DHT22;7826;49.784;9.934;2023-02-01T00:49:14;5.00;1.00
15450;DHT22;7826;49.784;9.934;2023-02-01T00:51:41;5.00;1.00
15450;DHT22;7826;49.784;9.934;2023-02-01T00:54:07;5.00;1.00
15450;DHT22;7826;49.784;9.934;2023-02-01T00:56:33;4.90;1.00
15450;DHT22;7826;49.784;9.934;2023-02-01T00:59:01;5.00;1.00
15450;DHT22;7826;49.784;9.934;2023-02-01T01:01:27;5.00;99.90
15450;DHT22;7826;49.784;9.934;2023-02-01T01:03:56;5.00;99.90
15450;DHT22;7826;49.784;9.934;2023-02-01T01:06:28;5.00;99.90
15450;DHT22;7826;49.784;9.934;2023-02-01T01:08:57;5.00;1.00
15450;DHT22;7826;49.784;9.934;2023-02-01T01:11:26;5.00;99.90
15450;DHT22;7826;49.784;9.934;2023-02-01T01:13:54;5.00;1.00
15450;DHT22;7826;49.784;9.934;2023-02-01T01:16:22;5.00;99.90
15450;DHT22;7826;49.784;9.934;2023-02-01T01:18:49;5.10;1.00
15450;DHT22;7826;49.784;9.934;2023-02-01T01:21:16;5.10;99.90
15450;DHT22;7826;49.784;9.934;2023-02-01T01:23:43;5.10;99.90
15450;DHT22;7826;49.784;9.934;2023-02-01T01:26:22;5.10;62.60
15450;DHT22;7826;49.784;9.934;2023-02-01T01:28:50;5.10;1.00
15450;DHT22;7826;49.784;9.934;2023-02-01T01:31:20;5.10;1.00
15450;DHT22;7826;49.784;9.934;2023-02-01T01:33:51;5.20;1.00
15450;DHT22;7826;49.784;9.934;2023-02-01T01:36:19;5.20;1.00
15450;DHT22;7826;49.784;9.934;2023-02-01T01:38:46;5.10;1.00
15450;DHT22;7826;49.784;9.934;2023-02-01T01:41:16;5.20;1.00
15450;DHT22;7826;49.784;9.934;2023-02-01T01:46:37;5.20;99.90
15450;DHT22;7826;49.784;9.934;2023-02-01T01:49:22;5.20;99.90
15450;DHT22;7826;49.784;9.934;2023-02-01T01:51:52;5.20;1.00
15450;DHT22;7826;49.784;9.934;2023-02-01T01:54:25;5.20;1.00
15450;DHT22;7826;49.784;9.934;2023-02-01T01:56:57;5.30;1.00
15450;DHT22;7826;49.784;9.934;2023-02-01T01:59:25;5.30;1.00
15450;DHT22;7826;49.784;9.934;2023-02-01T02:01:52;5.30;1.00
15450;DHT22;7826;49.784;9.934;2023-02-01T02:04:19;5.30;1.00
15450;DHT22;7826;49.784;9.934;2023-02-01T02:06:52;5.30;1.00
15450;DHT22;7826;49.784;9.934;2023-02-01T02:09:21;5.30;1.00
15450;DHT22;7826;49.784;9.934;2023-02-01T02:11:48;5.20;1.00
15450;DHT22;7826;49.784;9.934;2023-02-01T02:14:17;5.20;1.00
15450;DHT22;7826;49.784;9.934;2023-02-01T02:45:13;5.10;1.00
15450;DHT22;7826;49.784;9.934;2023-02-01T02:53:18;5.10;99.90
15450;DHT22;7826;49.784;9.934;2023-02-01T02:56:05;5.10;99.90
15450;DHT22;7826;49.784;9.934;2023-02-01T02:58:51;5.10;1.00
15450;DHT22;7826;49.784;9.934;2023-02-01T03:01:38;5.10;1.00
15450;DHT22;7826;49.784;9.934;2023-02-01T03:04:23;5.10;1.00
15450;DHT22;7826;49.784;9.934;2023-02-01T03:06:52;5.10;1.00
15450;DHT22;7826;49.784;9.934;2023-02-01T03:09:39;5.10;1.00
15450;DHT22;7826;49.784;9.934;2023-02-01T03:12:10;5.10;4.80
15450;DHT22;7826;49.784;9.934;2023-02-01T03:15:06;5.00;99.90
15450;DHT22;7826;49.784;9.934;2023-02-01T03:17:37;5.00;1.00
15450;DHT22;7826;49.784;9.934;2023-02-01T03:20:06;5.00;99.90
15450;DHT22;7826;49.784;9.934;2023-02-01T03:22:33;5.00;99.90
15450;DHT22;7826;49.784;9.934;2023-02-01T03:25:12;5.00;1.00
15450;DHT22;7826;49.784;9.934;2023-02-01T03:27:41;5.00;1.00
15450;DHT22;7826;49.784;9.934;2023-02-01T03:32:52;4.90;1.00
15450;DHT22;7826;49.784;9.934;2023-02-01T03:38:38;4.90;1.00
15450;DHT22;7826;49.784;9.934;2023-02-01T03:41:25;4.80;99.90
15450;DHT22;7826;49.784;9.934;2023-02-01T03:52:16;4.80;99.90
15450;DHT22;7826;49.784;9.934;2023-02-01T03:54:45;4.80;99.90
15450;DHT22;7826;49.784;9.934;2023-02-01T03:57:14;4.70;1.00
15450;DHT22;7826;49.784;9.934;2023-02-01T03:59:44;4.70;1.00
15450;DHT22;7826;49.784;9.934;2023-02-01T04:02:11;4.80;99.90
15450;DHT22;7826;49.784;9.934;2023-02-01T04:04:37;4.70;1.00
15450;DHT22;7826;49.784;9.934;2023-02-01T04:07:04;4.70;1.00
15450;DHT22;7826;49.784;9.934;2023-02-01T04:09:31;4.70;1.00
15450;DHT22;7826;49.784;9.934;2023-02-01T04:11:57;4.70;1.00
15450;DHT22;7826;49.784;9.934;2023-02-01T04:14:23;4.70;1.00
15450;DHT22;7826;49.784;9.934;2023-02-01T04:16:50;4.70;99.90
15450;DHT22;7826;49.784;9.934;2023-02-01T04:19:16;4.60;1.00
15450;DHT22;7826;49.784;9.934;2023-02-01T04:21:43;4.60;1.00
15450;DHT22;7826;49.784;9.934;2023-02-01T04:24:09;4.60;99.90
15450;DHT22;7826;49.784;9.934;2023-02-01T04:26:54;4.50;99.90
15450;DHT22;7826;49.784;9.934;2023-02-01T04:29:20;4.50;99.90
15450;DHT22;7826;49.784;9.934;2023-02-01T04:31:47;4.50;1.00
15450;DHT22;7826;49.784;9.934;2023-02-01T04:34:13;4.50;99.90
15450;DHT22;7826;49.784;9.934;2023-02-01T04:36:39;4.50;99.90
15450;DHT22;7826;49.784;9.934;2023-02-01T04:39:06;4.50;99.90
15450;DHT22;7826;49.784;9.934;2023-02-01T04:41:32;4.40;1.00
15450;DHT22;7826;49.784;9.934;2023-02-01T04:43:59;4.40;99.90
15450;DHT22;7826;49.784;9.934;2023-02-01T04:46:25;4.40;99.90
15450;DHT22;7826;49.784;9.934;2023-02-01T04:48:51;4.40;99.90
15450;DHT22;7826;49.784;9.934;2023-02-01T04:51:17;4.40;1.00
15450;DHT22;7826;49.784;9.934;2023-02-01T04:53:44;4.40;1.00
15450;DHT22;7826;49.784;9.934;2023-02-01T04:56:11;4.40;1.00
15450;DHT22;7826;49.784;9.934;2023-02-01T04:58:37;4.30;99.90
15450;DHT22;7826;49.784;9.934;2023-02-01T05:01:05;4.40;99.90
15450;DHT22;7826;49.784;9.934;2023-02-01T05:03:35;4.40;8.70
15450;DHT22;7826;49.784;9.934;2023-02-01T05:06:01;4.40;1.00
15450;DHT22;7826;49.784;9.934;2023-02-01T05:08:30;4.40;1.00
15450;DHT22;7826;49.784;9.934;2023-02-01T05:10:56;4.50;1.00
15450;DHT22;7826;49.784;9.934;2023-02-01T05:13:22;4.40;1.00
15450;DHT22;7826;49.784;9.934;2023-02-01T05:16:08;4.40;1.00
15450;DHT22;7826;49.784;9.934;2023-02-01T05:18:34;4.30;1.00
15450;DHT22;7826;49.784;9.934;2023-02-01T05:21:00;4.30;3.30
15450;DHT22;7826;49.784;9.934;2023-02-01T05:23:27;4.30;94.90
15450;DHT22;7826;49.784;9.934;2023-02-01T05:25:58;4.20;99.90
15450;DHT22;7826;49.784;9.934;2023-02-01T05:28:26;4.20;99.90
15450;DHT22;7826;49.784;9.934;2023-02-01T05:30:52;4.10;99.90
15450;DHT22;7826;49.784;9.934;2023-02-01T05:33:19;4.00;99.90
15450;DHT22;7826;49.784;9.934;2023-02-01T05:35:45;4.10;99.90
15450;DHT22;7826;49.784;9.934;2023-02-01T05:38:11;4.00;99.90
15450;DHT22;7826;49.784;9.934;2023-02-01T05:40:38;4.00;1.00
15450;DHT22;7826;49.784;9.934;2023-02-01T05:43:04;4.00;1.00
15450;DHT22;7826;49.784;9.934;2023-02-01T05:45:30;4.00;1.00
15450;DHT22;7826;49.784;9.934;2023-02-01T05:47:57;4.00;1.00
15450;DHT22;7826;49.784;9.934;2023-02-01T05:50:23;4.00;1.00
15450;DHT22;7826;49.784;9.934;2023-02-01T05:52:49;4.10;1.00
15450;DHT22;7826;49.784;9.934;2023-02-01T05:55:16;4.10;1.00
15450;DHT22;7826;49.784;9.934;2023-02-01T05:57:42;4.10;44.40
15450;DHT22;7826;49.784;9.934;2023-02-01T06:00:09;4.10;99.90
15450;DHT22;7826;49.784;9.934;2023-02-01T06:02:35;4.20;99.90
15450;DHT22;7826;49.784;9.934;2023-02-01T06:05:02;4.20;47.70
15450;DHT22;7826;49.784;9.934;2023-02-01T06:07:28;4.20;1.00
15450;DHT22;7826;49.784;9.934;2023-02-01T06:09:55;4.20;1.00
15450;DHT22;7826;49.784;9.934;2023-02-01T06:12:21;4.30;1.00
15450;DHT22;7826;49.784;9.934;2023-02-01T06:14:47;4.30;1.00
15450;DHT22;7826;49.784;9.934;2023-02-01T06:17:14;4.40;1.00
15450;DHT22;7826;49.784;9.934;2023-02-01T06:19:40;4.40;1.00
15450;DHT22;7826;49.784;9.934;2023-02-01T06:22:07;4.40;1.00
15450;DHT22;7826;49.784;9.934;2023-02-01T06:24:33;4.40;1.00
15450;DHT22;7826;49.784;9.934;2023-02-01T06:27:00;4.50;1.00
15450;DHT22;7826;49.784;9.934;2023-02-01T06:29:26;4.50;1.00
15450;DHT22;7826;49.784;9.934;2023-02-01T06:31:52;4.50;99.90
15450;DHT22;7826;49.784;9.934;2023-02-01T06:34:19;4.50;99.90
15450;DHT22;7826;49.784;9.934;2023-02-01T06:36:45;4.60;99.90
15450;DHT22;7826;49.784;9.934;2023-02-01T06:39:12;4.50;99.90
15450;DHT22;7826;49.784;9.934;2023-02-01T06:41:48;4.50;99.90
15450;DHT22;7826;49.784;9.934;2023-02-01T06:44:15;4.50;99.90
15450;DHT22;7826;49.784;9.934;2023-02-01T06:46:42;4.50;3.30
15450;DHT22;7826;49.784;9.934;2023-02-01T06:49:08;4.50;1.00
15450;DHT22;7826;49.784;9.934;2023-02-01T06:51:35;4.40;3.20
15450;DHT22;7826;49.784;9.934;2023-02-01T06:54:01;4.50;99.90
15450;DHT22;7826;49.784;9.934;2023-02-01T06:56:28;4.60;99.90
15450;DHT22;7826;49.784;9.934;2023-02-01T06:58:57;4.60;99.90
15450;DHT22;7826;49.784;9.934;2023-02-01T07:01:23;4.60;1.00
15450;DHT22;7826;49.784;9.934;2023-02-01T07:03:50;4.60;1.00
15450;DHT22;7826;49.784;9.934;2023-02-01T07:06:17;4.60;1.00
15450;DHT22;7826;49.784;9.934;2023-02-01T07:08:44;4.60;1.00
15450;DHT22;7826;49.784;9.934;2023-02-01T07:11:13;4.60;1.00
15450;DHT22;7826;49.784;9.934;2023-02-01T07:13:39;4.50;1.00
15450;DHT22;7826;49.784;9.934;2023-02-01T07:16:10;4.50;1.00
15450;DHT22;7826;49.784;9.934;2023-02-01T07:18:37;4.50;1.00
15450;DHT22;7826;49.784;9.934;2023-02-01T07:21:04;4.50;1.00
15450;DHT22;7826;49.784;9.934;2023-02-01T07:23:30;4.60;1.00
15450;DHT22;7826;49.784;9.934;2023-02-01T07:26:00;4.50;1.00
15450;DHT22;7826;49.784;9.934;2023-02-01T07:28:29;4.60;1.00
15450;DHT22;7826;49.784;9.934;2023-02-01T07:31:11;4.70;1.00
15450;DHT22;7826;49.784;9.934;2023-02-01T07:33:38;4.80;1.00
15450;DHT22;7826;49.784;9.934;2023-02-01T07:36:06;4.80;99.90
15450;DHT22;7826;49.784;9.934;2023-02-01T07:38:33;4.90;99.90
15450;DHT22;7826;49.784;9.934;2023-02-01T07:41:04;5.00;99.90
15450;DHT22;7826;49.784;9.934;2023-02-01T07:43:31;5.10;99.90
15450;DHT22;7826;49.784;9.934;2023-02-01T07:45:59;5.10;99.90
15450;DHT22;7826;49.784;9.934;2023-02-01T07:48:26;5.20;99.90
15450;DHT22;7826;49.784;9.934;2023-02-01T07:51:01;5.30;99.90
15450;DHT22;7826;49.784;9.934;2023-02-01T07:53:29;5.30;99.90
15450;DHT22;7826;49.784;9.934;2023-02-01T07:55:56;5.40;99.90
15450;DHT22;7826;49.784;9.934;2023-02-01T07:58:23;5.50;99.90
15450;DHT22;7826;49.784;9.934;2023-02-01T08:00:50;5.50;99.90
15450;DHT22;7826;49.784;9.934;2023-02-01T08:03:34;5.60;99.90
15450;DHT22;7826;49.784;9.934;2023-02-01T08:06:01;5.60;85.20
15450;DHT22;7826;49.784;9.934;2023-02-01T08:08:27;5.50;65.60
15450;DHT22;7826;49.784;9.934;2023-02-01T08:10:58;5.60;65.30
15450;DHT22;7826;49.784;9.934;2023-02-01T08:13:24;5.70;59.50
15450;DHT22;7826;49.784;9.934;2023-02-01T08:15:50;5.80;45.00
15450;DHT22;7826;49.784;9.934;2023-02-01T08:18:16;5.80;6.70
15450;DHT22;7826;49.784;9.934;2023-02-01T08:20:44;5.80;1.00
15450;DHT22;7826;49.784;9.934;2023-02-01T08:23:12;5.80;1.00
15450;DHT22;7826;49.784;9.934;2023-02-01T08:25:38;5.90;1.00
15450;DHT22;7826;49.784;9.934;2023-02-01T08:28:06;6.10;1.00
15450;DHT22;7826;49.784;9.934;2023-02-01T08:30:33;6.50;1.00
15450;DHT22;7826;49.784;9.934;2023-02-01T08:32:59;6.80;1.00
15450;DHT22;7826;49.784;9.934;2023-02-01T08:35:27;7.00;1.00
15450;DHT22;7826;49.784;9.934;2023-02-01T08:37:53;7.30;1.00
15450;DHT22;7826;49.784;9.934;2023-02-01T08:40:20;7.60;1.00
15450;DHT22;7826;49.784;9.934;2023-02-01T08:42:47;7.90;1.00
15450;DHT22;7826;49.784;9.934;2023-02-01T08:45:25;8.10;1.00
15450;DHT22;7826;49.784;9.934;2023-02-01T08:47:52;8.30;1.00
15450;DHT22;7826;49.784;9.934;2023-02-01T08:50:20;8.30;1.00
15450;DHT22;7826;49.784;9.934;2023-02-01T08:52:46;8.40;1.00
15450;DHT22;7826;49.784;9.934;2023-02-01T08:55:14;8.80;1.00
15450;DHT22;7826;49.784;9.934;2023-02-01T08:57:41;8.90;1.00
15450;DHT22;7826;49.784;9.934;2023-02-01T09:00:11;8.70;1.00
15450;DHT22;7826;49.784;9.934;2023-02-01T09:02:38;8.50;1.00
15450;DHT22;7826;49.784;9.934;2023-02-01T09:05:05;8.10;1.00
15450;DHT22;7826;49.784;9.934;2023-02-01T09:07:32;7.80;1.00
15450;DHT22;7826;49.784;9.934;2023-02-01T09:09:58;7.70;1.00
15450;DHT22;7826;49.784;9.934;2023-02-01T09:12:28;7.60;1.00
15450;DHT22;7826;49.784;9.934;2023-02-01T09:14:56;7.40;1.00
15450;DHT22;7826;49.784;9.934;2023-02-01T09:17:23;7.20;1.00
15450;DHT22;7826;49.784;9.934;2023-02-01T09:19:49;7.10;1.00
15450;DHT22;7826;49.784;9.934;2023-02-01T09:22:16;7.00;1.00
15450;DHT22;7826;49.784;9.934;2023-02-01T09:24:42;6.90;1.00
15450;DHT22;7826;49.784;9.934;2023-02-01T09:27:09;6.70;1.00
15450;DHT22;7826;49.784;9.934;2023-02-01T09:29:36;6.70;1.00
15450;DHT22;7826;49.784;9.934;2023-02-01T09:32:02;6.60;1.00
15450;DHT22;7826;49.784;9.934;2023-02-01T09:34:29;6.50;1.00
15450;DHT22;7826;49.784;9.934;2023-02-01T09:36:56;6.50;1.00
15450;DHT22;7826;49.784;9.934;2023-02-01T09:39:23;6.50;1.00
15450;DHT22;7826;49.784;9.934;2023-02-01T09:42:26;6.50;1.00
15450;DHT22;7826;49.784;9.934;2023-02-01T09:47:30;6.50;1.00
15450;DHT22;7826;49.784;9.934;2023-02-01T09:50:16;6.60;1.00
15450;DHT22;7826;49.784;9.934;2023-02-01T09:55:34;6.70;1.00
15450;DHT22;7826;49.784;9.934;2023-02-01T09:58:07;6.70;1.00
15450;DHT22;7826;49.784;9.934;2023-02-01T10:00:37;6.70;1.00
15450;DHT22;7826;49.784;9.934;2023-02-01T10:03:05;6.60;1.00
15450;DHT22;7826;49.784;9.934;2023-02-01T10:11:32;6.60;1.00
15450;DHT22;7826;49.784;9.934;2023-02-01T10:23:04;6.70;1.00
15450;DHT22;7826;49.784;9.934;2023-02-01T10:25:54;6.70;1.00
15450;DHT22;7826;49.784;9.934;2023-02-01T10:28:22;6.80;1.00
15450;DHT22;7826;49.784;9.934;2023-02-01T10:30:54;6.80;1.00
15450;DHT22;7826;49.784;9.934;2023-02-01T10:33:27;6.90;1.00
15450;DHT22;7826;49.784;9.934;2023-02-01T10:36:24;7.00;1.00
15450;DHT22;7826;49.784;9.934;2023-02-01T10:38:53;7.10;1.00
15450;DHT22;7826;49.784;9.934;2023-02-01T10:41:21;7.20;1.00
15450;DHT22;7826;49.784;9.934;2023-02-01T10:43:51;7.40;1.00
15450;DHT22;7826;49.784;9.934;2023-02-01T10:46:20;7.60;1.00
15450;DHT22;7826;49.784;9.934;2023-02-01T10:48:48;7.70;1.00
15450;DHT22;7826;49.784;9.934;2023-02-01T10:51:21;7.70;1.00
15450;DHT22;7826;49.784;9.934;2023-02-01T10:53:55;7.60;1.00
15450;DHT22;7826;49.784;9.934;2023-02-01T10:56:25;7.50;1.00
15450;DHT22;7826;49.784;9.934;2023-02-01T10:59:14;7.40;1.00
15450;DHT22;7826;49.784;9.934;2023-02-01T11:01:43;7.30;1.00
15450;DHT22;7826;49.784;9.934;2023-02-01T11:04:19;7.30;1.00
15450;DHT22;7826;49.784;9.934;2023-02-01T11:06:53;7.20;1.00
15450;DHT22;7826;49.784;9.934;2023-02-01T11:09:30;7.20;1.00
15450;DHT22;7826;49.784;9.934;2023-02-01T11:11:58;7.10;1.00
15450;DHT22;7826;49.784;9.934;2023-02-01T11:17:01;7.10;1.00
15450;DHT22;7826;49.784;9.934;2023-02-01T11:19:29;7.10;1.00
15450;DHT22;7826;49.784;9.934;2023-02-01T11:21:58;7.10;1.00
15450;DHT22;7826;49.784;9.934;2023-02-01T11:24:32;7.20;1.00
15450;DHT22;7826;49.784;9.934;2023-02-01T11:27:04;7.40;1.00
15450;DHT22;7826;49.784;9.934;2023-02-01T11:29:43;7.80;1.00
15450;DHT22;7826;49.784;9.934;2023-02-01T11:32:12;8.10;1.00
15450;DHT22;7826;49.784;9.934;2023-02-01T11:34:52;8.30;1.00
15450;DHT22;7826;49.784;9.934;2023-02-01T11:37:38;8.30;1.00
15450;DHT22;7826;49.784;9.934;2023-02-01T11:40:57;8.50;1.00
15450;DHT22;7826;49.784;9.934;2023-02-01T11:43:26;8.50;1.00
15450;DHT22;7826;49.784;9.934;2023-02-01T11:48:24;8.50;1.00
15450;DHT22;7826;49.784;9.934;2023-02-01T11:51:15;8.40;1.00
15450;DHT22;7826;49.784;9.934;2023-02-01T11:59:33;8.40;1.00
15450;DHT22;7826;49.784;9.934;2023-02-01T12:05:27;8.30;1.00
15450;DHT22;7826;49.784;9.934;2023-02-01T12:08:06;8.20;1.00
15450;DHT22;7826;49.784;9.934;2023-02-01T12:24:38;7.80;1.00
15450;DHT22;7826;49.784;9.934;2023-02-01T12:38:08;7.80;1.00
15450;DHT22;7826;49.784;9.934;2023-02-01T12:46:16;7.80;1.00
15450;DHT22;7826;49.784;9.934;2023-02-01T12:49:03;7.80;1.00
15450;DHT22;7826;49.784;9.934;2023-02-01T12:51:41;7.70;1.00
15450;DHT22;7826;49.784;9.934;2023-02-01T12:55:02;7.60;1.00
15450;DHT22;7826;49.784;9.934;2023-02-01T12:57:12;7.60;1.00
15450;DHT22;7826;49.784;9.934;2023-02-01T13:00:18;7.70;1.00
15450;DHT22;7826;49.784;9.934;2023-02-01T13:06:01;7.70;1.00
15450;DHT22;7826;49.784;9.934;2023-02-01T13:08:56;7.70;1.00
15450;DHT22;7826;49.784;9.934;2023-02-01T13:11:42;7.60;1.00
15450;DHT22;7826;49.784;9.934;2023-02-01T13:14:32;7.60;1.00
15450;DHT22;7826;49.784;9.934;2023-02-01T13:17:08;7.60;1.00
15450;DHT22;7826;49.784;9.934;2023-02-01T13:22:28;7.50;1.00
15450;DHT22;7826;49.784;9.934;2023-02-01T13:24:59;7.50;1.00
15450;DHT22;7826;49.784;9.934;2023-02-01T13:27:29;7.50;1.00
15450;DHT22;7826;49.784;9.934;2023-02-01T13:30:18;7.60;1.00
15450;DHT22;7826;49.784;9.934;2023-02-01T13:41:29;7.30;1.00
15450;DHT22;7826;49.784;9.934;2023-02-01T13:44:14;7.30;1.00
15450;DHT22;7826;49.784;9.934;2023-02-01T13:46:44;7.20;1.00
15450;DHT22;7826;49.784;9.934;2023-02-01T13:49:23;7.20;1.00
15450;DHT22;7826;49.784;9.934;2023-02-01T13:51:53;7.10;1.00
15450;DHT22;7826;49.784;9.934;2023-02-01T13:56:54;7.10;1.00
15450;DHT22;7826;49.784;9.934;2023-02-01T14:10:57;7.10;1.00
15450;DHT22;7826;49.784;9.934;2023-02-01T14:13:40;7.10;1.00
15450;DHT22;7826;49.784;9.934;2023-02-01T14:16:12;7.10;1.00
15450;DHT22;7826;49.784;9.934;2023-02-01T14:42:43;7.10;1.00
15450;DHT22;7826;49.784;9.934;2023-02-01T14:56:09;7.30;1.00
15450;DHT22;7826;49.784;9.934;2023-02-01T14:58:56;7.40;1.00
15450;DHT22;7826;49.784;9.934;2023-02-01T15:01:32;7.40;1.00
15450;DHT22;7826;49.784;9.934;2023-02-01T15:04:11;7.40;1.00
15450;DHT22;7826;49.784;9.934;2023-02-01T15:06:53;7.40;1.00
15450;DHT22;7826;49.784;9.934;2023-02-01T15:09:29;7.40;1.00
15450;DHT22;7826;49.784;9.934;2023-02-01T15:14:31;7.30;1.00
15450;DHT22;7826;49.784;9.934;2023-02-01T15:16:58;7.30;1.00
15450;DHT22;7826;49.784;9.934;2023-02-01T15:19:26;7.30;1.00
15450;DHT22;7826;49.784;9.934;2023-02-01T15:21:57;7.30;1.00
15450;DHT22;7826;49.784;9.934;2023-02-01T15:24:27;7.20;1.00
15450;DHT22;7826;49.784;9.934;2023-02-01T15:26:55;7.20;1.00
15450;DHT22;7826;49.784;9.934;2023-02-01T15:29:23;7.20;1.00
15450;DHT22;7826;49.784;9.934;2023-02-01T15:31:55;7.10;1.00
15450;DHT22;7826;49.784;9.934;2023-02-01T15:34:22;7.10;1.00
15450;DHT22;7826;49.784;9.934;2023-02-01T15:36:48;7.10;1.00
15450;DHT22;7826;49.784;9.934;2023-02-01T15:39:20;7.10;1.00
15450;DHT22;7826;49.784;9.934;2023-02-01T15:42:09;7.00;1.00
15450;DHT22;7826;49.784;9.934;2023-02-01T15:44:41;7.00;1.00
15450;DHT22;7826;49.784;9.934;2023-02-01T15:47:26;7.00;1.00
15450;DHT22;7826;49.784;9.934;2023-02-01T15:49:55;7.00;1.00
15450;DHT22;7826;49.784;9.934;2023-02-01T15:52:37;6.90;1.00
15450;DHT22;7826;49.784;9.934;2023-02-01T15:55:08;6.90;1.00
15450;DHT22;7826;49.784;9.934;2023-02-01T15:57:43;6.90;1.00
15450;DHT22;7826;49.784;9.934;2023-02-01T16:02:55;6.80;1.00
15450;DHT22;7826;49.784;9.934;2023-02-01T16:05:38;6.70;1.00
15450;DHT22;7826;49.784;9.934;2023-02-01T16:08:19;6.70;1.00
15450;DHT22;7826;49.784;9.934;2023-02-01T16:10:49;6.70;1.00
15450;DHT22;7826;49.784;9.934;2023-02-01T16:13:17;6.70;1.00
15450;DHT22;7826;49.784;9.934;2023-02-01T16:15:44;6.70;1.00
15450;DHT22;7826;49.784;9.934;2023-02-01T16:18:12;6.60;1.00
15450;DHT22;7826;49.784;9.934;2023-02-01T16:20:40;6.60;1.00
15450;DHT22;7826;49.784;9.934;2023-02-01T16:23:08;6.60;1.00
15450;DHT22;7826;49.784;9.934;2023-02-01T16:25:35;6.60;1.00
15450;DHT22;7826;49.784;9.934;2023-02-01T16:28:01;6.60;1.00
15450;DHT22;7826;49.784;9.934;2023-02-01T16:30:28;6.60;1.00
15450;DHT22;7826;49.784;9.934;2023-02-01T16:32:56;6.60;1.00
15450;DHT22;7826;49.784;9.934;2023-02-01T16:35:26;6.60;1.00
15450;DHT22;7826;49.784;9.934;2023-02-01T16:37:53;6.60;1.00
15450;DHT22;7826;49.784;9.934;2023-02-01T16:40:20;6.60;1.00
15450;DHT22;7826;49.784;9.934;2023-02-01T16:42:52;6.60;1.00
15450;DHT22;7826;49.784;9.934;2023-02-01T16:45:21;6.60;1.00
15450;DHT22;7826;49.784;9.934;2023-02-01T16:47:51;6.60;1.00
15450;DHT22;7826;49.784;9.934;2023-02-01T16:50:24;6.60;1.00
15450;DHT22;7826;49.784;9.934;2023-02-01T16:52:52;6.60;1.00
15450;DHT22;7826;49.784;9.934;2023-02-01T16:55:20;6.60;1.00
15450;DHT22;7826;49.784;9.934;2023-02-01T16:57:49;6.60;1.00
15450;DHT22;7826;49.784;9.934;2023-02-01T17:00:17;6.60;1.00
15450;DHT22;7826;49.784;9.934;2023-02-01T17:02:46;6.60;1.00
15450;DHT22;7826;49.784;9.934;2023-02-01T17:05:12;6.50;1.00
15450;DHT22;7826;49.784;9.934;2023-02-01T17:07:40;6.50;1.00
15450;DHT22;7826;49.784;9.934;2023-02-01T17:10:21;6.50;1.00
15450;DHT22;7826;49.784;9.934;2023-02-01T17:12:48;6.50;1.00
15450;DHT22;7826;49.784;9.934;2023-02-01T17:15:14;6.50;1.00
15450;DHT22;7826;49.784;9.934;2023-02-01T17:17:41;6.50;1.00
15450;DHT22;7826;49.784;9.934;2023-02-01T17:20:29;6.50;1.00
15450;DHT22;7826;49.784;9.934;2023-02-01T17:22:58;6.50;1.00
15450;DHT22;7826;49.784;9.934;2023-02-01T17:25:26;6.50;1.00
15450;DHT22;7826;49.784;9.934;2023-02-01T17:27:53;6.50;1.00
15450;DHT22;7826;49.784;9.934;2023-02-01T17:30:20;6.40;1.00
15450;DHT22;7826;49.784;9.934;2023-02-01T17:32:46;6.40;1.00
15450;DHT22;7826;49.784;9.934;2023-02-01T17:35:23;6.40;1.00
15450;DHT22;7826;49.784;9.934;2023-02-01T17:37:51;6.40;1.00
15450;DHT22;7826;49.784;9.934;2023-02-01T17:40:18;6.40;1.00
15450;DHT22;7826;49.784;9.934;2023-02-01T17:42:44;6.40;1.00
15450;DHT22;7826;49.784;9.934;2023-02-01T17:45:41;6.30;1.00
15450;DHT22;7826;49.784;9.934;2023-02-01T17:48:06;6.30;1.00
15450;DHT22;7826;49.784;9.934;2023-02-01T17:50:36;6.30;1.00
15450;DHT22;7826;49.784;9.934;2023-02-01T17:53:04;6.30;1.00
15450;DHT22;7826;49.784;9.934;2023-02-01T17:55:33;6.30;1.00
15450;DHT22;7826;49.784;9.934;2023-02-01T17:57:59;6.30;1.00
15450;DHT22;7826;49.784;9.934;2023-02-01T18:00:26;6.30;1.00
15450;DHT22;7826;49.784;9.934;2023-02-01T18:02:52;6.30;1.00
15450;DHT22;7826;49.784;9.934;2023-02-01T18:05:25;6.30;1.00
15450;DHT22;7826;49.784;9.934;2023-02-01T18:07:53;6.30;1.00
15450;DHT22;7826;49.784;9.934;2023-02-01T18:10:19;6.40;1.00
15450;DHT22;7826;49.784;9.934;2023-02-01T18:12:45;6.40;1.00
15450;DHT22;7826;49.784;9.934;2023-02-01T18:15:18;6.40;1.00
15450;DHT22;7826;49.784;9.934;2023-02-01T18:17:45;6.40;1.00
15450;DHT22;7826;49.784;9.934;2023-02-01T18:20:16;6.50;1.00
15450;DHT22;7826;49.784;9.934;2023-02-01T18:22:44;6.50;1.00
15450;DHT22;7826;49.784;9.934;2023-02-01T18:25:23;6.50;1.00
15450;DHT22;7826;49.784;9.934;2023-02-01T18:27:51;6.50;1.00
15450;DHT22;7826;49.784;9.934;2023-02-01T18:30:20;6.50;1.00
15450;DHT22;7826;49.784;9.934;2023-02-01T18:32:47;6.50;1.00
15450;DHT22;7826;49.784;9.934;2023-02-01T18:35:18;6.50;1.00
15450;DHT22;7826;49.784;9.934;2023-02-01T18:37:46;6.60;1.00
15450;DHT22;7826;49.784;9.934;2023-02-01T18:40:14;6.60;1.00
15450;DHT22;7826;49.784;9.934;2023-02-01T18:42:41;6.60;1.00
15450;DHT22;7826;49.784;9.934;2023-02-01T18:45:21;6.60;1.00
15450;DHT22;7826;49.784;9.934;2023-02-01T18:47:50;6.60;1.00
15450;DHT22;7826;49.784;9.934;2023-02-01T18:50:16;6.60;1.00
15450;DHT22;7826;49.784;9.934;2023-02-01T18:52:43;6.60;1.00
15450;DHT22;7826;49.784;9.934;2023-02-01T18:55:10;6.70;1.00
15450;DHT22;7826;49.784;9.934;2023-02-01T18:57:37;6.70;1.00
15450;DHT22;7826;49.784;9.934;2023-02-01T19:00:05;6.60;1.00
15450;DHT22;7826;49.784;9.934;2023-02-01T19:02:32;6.70;1.00
15450;DHT22;7826;49.784;9.934;2023-02-01T19:04:58;6.70;1.00
15450;DHT22;7826;49.784;9.934;2023-02-01T19:07:25;6.70;1.00
15450;DHT22;7826;49.784;9.934;2023-02-01T19:09:51;6.60;1.00
15450;DHT22;7826;49.784;9.934;2023-02-01T19:12:19;6.60;1.00
15450;DHT22;7826;49.784;9.934;2023-02-01T19:14:46;6.60;1.00
15450;DHT22;7826;49.784;9.934;2023-02-01T19:17:12;6.60;1.00
15450;DHT22;7826;49.784;9.934;2023-02-01T19:19:40;6.60;1.00
15450;DHT22;7826;49.784;9.934;2023-02-01T19:22:07;6.60;1.00
15450;DHT22;7826;49.784;9.934;2023-02-01T19:24:33;6.60;1.00
15450;DHT22;7826;49.784;9.934;2023-02-01T19:27:00;6.60;1.00
15450;DHT22;7826;49.784;9.934;2023-02-01T19:29:26;6.60;1.00
15450;DHT22;7826;49.784;9.934;2023-02-01T19:31:52;6.50;1.00
15450;DHT22;7826;49.784;9.934;2023-02-01T19:34:19;6.50;1.00
15450;DHT22;7826;49.784;9.934;2023-02-01T19:36:45;6.50;1.00
15450;DHT22;7826;49.784;9.934;2023-02-01T19:39:12;6.50;1.00